Time,TemperatureF,DewpointF,PressureIn,WindDirection,WindDirectionDegrees,WindSpeedMPH,WindSpeedGustMPH,Humidity,HourlyPrecipIn,Conditions,Clouds,dailyrainin,SoftwareType,DateUTC
2013-01-03 00:00:00,20.8,14.8,30.17,North,0,0.0,0.0,77,0.00,CLR,,0.00,WeatherDisplay:10.37,2013-01-03 05:00:00,
2013-01-03 00:01:00,20.8,14.5,30.17,WSW,248,1.3,0.0,76,0.00,CLR,,0.00,WeatherDisplay:10.37,2013-01-03 05:01:00,
2013-01-03 00:02:00,20.8,14.5,30.17,WSW,248,1.3,0.0,76,0.00,CLR,,0.00,WeatherDisplay:10.37,2013-01-03 05:02:00,
2013-01-03 00:07:00,20.8,14.5,30.17,SW,225,0.0,0.0,76,0.00,CLR,,0.00,WeatherDisplay:10.37,2013-01-03 05:07:00,
2013-01-03 00:12:00,20.8,14.5,30.17,NNE,22,0.0,0.0,76,0.00,CLR,,0.00,WeatherDisplay:10.37,2013-01-03 05:12:00,
2013-01-03 00:17:00,20.8,14.5,30.17,South,180,0.0,0.0,76,0.00,CLR,,0.00,WeatherDisplay:10.37,2013-01-03 05:17:00,
2013-01-03 00:22:00,20.8,14.8,30.16,ESE,112,1.6,0.0,77,0.00,CLR,,0.00,WeatherDisplay:10.37,2013-01-03 05:22:00,
2013-01-03 00:27:00,20.8,14.5,30.16,SE,135,0.0,0.0,76,0.00,CLR,,0.00,WeatherDisplay:10.37,2013-01-03 05:27:00,
2013-01-03 00:32:00,20.7,14.3,30.16,SSE,158,0.0,0.0,76,0.00,CLR,,0.00,WeatherDisplay:10.37,2013-01-03 05:32:00,
2013-01-03 00:37:00,20.8,14.5,30.16,SE,135,0.0,0.0,76,0.00,CLR,,0.00,WeatherDisplay:10.37,2013-01-03 05:37:00,
2013-01-03 00:42:00,20.8,14.5,30.16,WSW,248,0.0,0.0,76,0.00,CLR,,0.00,WeatherDisplay:10.37,2013-01-03 05:42:00,
2013-01-03 00:47:00,20.8,14.5,30.16,WSW,248,0.0,0.0,76,0.00,CLR,,0.00,WeatherDisplay:10.37,2013-01-03 05:47:00,
2013-01-03 00:52:00,21.0,14.9,30.16,WSW,248,0.0,0.0,77,0.00,CLR,,0.00,WeatherDisplay:10.37,2013-01-03 05:52:00,
2013-01-03 00:57:00,21.0,14.9,30.16,South,180,0.0,0.0,77,0.00,CLR,,0.00,WeatherDisplay:10.37,2013-01-03 05:57:00,
2013-01-03 01:02:00,20.8,14.8,30.15,SSE,158,0.0,0.0,77,0.00,CLR,,0.00,WeatherDisplay:10.37,2013-01-03 06:02:00,
2013-01-03 01:07:00,21.0,14.9,30.15,SSE,158,1.1,0.0,77,0.00,CLR,,0.00,WeatherDisplay:10.37,2013-01-03 06:07:00,
2013-01-03 01:12:00,20.8,14.8,30.15,South,180,1.1,1.1,77,0.00,CLR,,0.00,WeatherDisplay:10.37,2013-01-03 06:12:00,
2013-01-03 01:17:00,20.8,14.8,30.15,SSE,158,1.1,1.1,77,0.00,CLR,,0.00,WeatherDisplay:10.37,2013-01-03 06:17:00,
2013-01-03 01:22:00,20.8,14.8,30.15,ESE,112,1.1,1.1,77,0.00,CLR,,0.00,WeatherDisplay:10.37,2013-01-03 06:22:00,
2013-01-03 01:27:00,20.8,14.8,30.15,SSW,202,0.0,0.0,77,0.00,CLR,,0.00,WeatherDisplay:10.37,2013-01-03 06:27:00,
2013-01-03 01:32:00,20.8,14.8,30.15,South,180,0.0,0.0,77,0.00,CLR,,0.00,WeatherDisplay:10.37,2013-01-03 06:32:00,
2013-01-03 01:37:00,20.8,14.8,30.15,South,180,0.0,0.0,77,0.00,CLR,,0.00,WeatherDisplay:10.37,2013-01-03 06:37:00,
2013-01-03 01:42:00,20.8,14.8,30.15,South,180,0.0,0.0,77,0.00,CLR,,0.00,WeatherDisplay:10.37,2013-01-03 06:42:00,
2013-01-03 01:47:00,20.8,14.8,30.15,South,180,0.0,0.0,77,0.00,CLR,,0.00,WeatherDisplay:10.37,2013-01-03 06:47:00,
2013-01-03 01:52:00,20.8,14.8,30.15,South,180,0.0,0.0,77,0.00,CLR,,0.00,WeatherDisplay:10.37,2013-01-03 06:52:00,
2013-01-03 01:57:00,20.8,14.8,30.15,SE,135,0.0,0.0,77,0.00,CLR,,0.00,WeatherDisplay:10.37,2013-01-03 06:57:00,
2013-01-03 02:02:00,20.8,14.8,30.15,SE,135,1.1,1.1,77,0.00,CLR,,0.00,WeatherDisplay:10.37,2013-01-03 07:02:00,
2013-01-03 02:07:00,20.8,15.1,30.15,South,180,0.0,0.0,78,0.00,CLR,,0.00,WeatherDisplay:10.37,2013-01-03 07:07:00,
2013-01-03 02:12:00,20.8,15.1,30.15,South,180,0.0,0.0,78,0.00,CLR,,0.00,WeatherDisplay:10.37,2013-01-03 07:12:00,
2013-01-03 02:17:00,20.8,15.1,30.15,South,180,0.0,0.0,78,0.00,CLR,,0.00,WeatherDisplay:10.37,2013-01-03 07:17:00,
2013-01-03 02:22:00,21.0,15.2,30.15,SE,135,0.0,0.0,78,0.00,CLR,,0.00,WeatherDisplay:10.37,2013-01-03 07:22:00,
2013-01-03 02:27:00,20.8,15.1,30.15,South,180,0.0,0.0,78,0.00,CLR,,0.00,WeatherDisplay:10.37,2013-01-03 07:27:00,
2013-01-03 02:32:00,20.8,15.1,30.15,South,180,0.0,0.0,78,0.00,CLR,,0.00,WeatherDisplay:10.37,2013-01-03 07:32:00,
2013-01-03 02:37:00,20.8,15.1,30.15,South,180,0.0,0.0,78,0.00,CLR,,0.00,WeatherDisplay:10.37,2013-01-03 07:37:00,
2013-01-03 02:42:00,21.0,15.5,30.16,South,180,0.0,0.0,79,0.00,CLR,,0.00,WeatherDisplay:10.37,2013-01-03 07:42:00,
2013-01-03 02:47:00,21.0,15.5,30.16,South,180,0.0,0.0,79,0.00,CLR,,0.00,WeatherDisplay:10.37,2013-01-03 07:47:00,
2013-01-03 02:52:00,21.0,15.5,30.16,South,180,0.0,0.0,79,0.00,CLR,,0.00,WeatherDisplay:10.37,2013-01-03 07:52:00,
2013-01-03 02:57:00,21.0,15.5,30.16,SSE,158,0.0,0.0,79,0.00,CLR,,0.00,WeatherDisplay:10.37,2013-01-03 07:57:00,
2013-01-03 03:02:00,20.8,15.4,30.15,SE,135,0.0,0.0,79,0.00,CLR,,0.00,WeatherDisplay:10.37,2013-01-03 08:02:00,
2013-01-03 03:07:00,20.8,15.4,30.15,South,180,0.0,0.0,79,0.00,CLR,,0.00,WeatherDisplay:10.37,2013-01-03 08:07:00,
2013-01-03 03:12:00,21.0,15.5,30.15,South,180,0.0,0.0,79,0.00,CLR,,0.00,WeatherDisplay:10.37,2013-01-03 08:12:00,
2013-01-03 03:17:00,21.0,15.5,30.15,WSW,248,0.0,0.0,79,0.00,CLR,,0.00,WeatherDisplay:10.37,2013-01-03 08:17:00,
2013-01-03 03:22:00,21.0,15.5,30.15,SSE,158,0.0,0.0,79,0.00,CLR,,0.00,WeatherDisplay:10.37,2013-01-03 08:22:00,
2013-01-03 03:27:00,21.0,15.5,30.15,SSE,158,0.0,0.0,79,0.00,CLR,,0.00,WeatherDisplay:10.37,2013-01-03 08:27:00,
2013-01-03 03:32:00,21.0,15.5,30.15,SSE,158,0.0,0.0,79,0.00,CLR,,0.00,WeatherDisplay:10.37,2013-01-03 08:32:00,
2013-01-03 03:37:00,21.0,15.8,30.15,South,180,0.0,0.0,80,0.00,CLR,,0.00,WeatherDisplay:10.37,2013-01-03 08:37:00,
2013-01-03 03:42:00,21.0,15.8,30.14,South,180,0.0,0.0,80,0.00,CLR,,0.00,WeatherDisplay:10.37,2013-01-03 08:42:00,
2013-01-03 03:47:00,21.0,15.8,30.14,South,180,0.0,0.0,80,0.00,CLR,,0.00,WeatherDisplay:10.37,2013-01-03 08:47:00,
2013-01-03 03:52:00,21.0,15.8,30.14,SE,135,0.0,0.0,80,0.00,CLR,,0.00,WeatherDisplay:10.37,2013-01-03 08:52:00,
2013-01-03 03:57:00,21.0,15.8,30.14,SE,135,0.0,0.0,80,0.00,CLR,,0.00,WeatherDisplay:10.37,2013-01-03 08:57:00,
2013-01-03 04:03:00,21.0,15.8,30.14,SE,135,0.0,0.0,80,0.00,CLR,,0.00,WeatherDisplay:10.37,2013-01-03 09:03:00,
2013-01-03 04:08:00,21.0,15.8,30.14,SSE,158,1.1,1.1,80,0.00,CLR,,0.00,WeatherDisplay:10.37,2013-01-03 09:08:00,
2013-01-03 04:13:00,21.0,15.8,30.14,SSE,158,1.1,1.1,80,0.00,CLR,,0.00,WeatherDisplay:10.37,2013-01-03 09:13:00,
2013-01-03 04:18:00,21.0,15.8,30.14,SE,135,0.0,0.1,80,0.00,CLR,,0.00,WeatherDisplay:10.37,2013-01-03 09:18:00,
2013-01-03 04:22:00,21.0,15.8,30.14,SSE,158,0.0,0.0,80,0.00,CLR,,0.00,WeatherDisplay:10.37,2013-01-03 09:22:00,
2013-01-03 04:28:00,21.0,15.8,30.14,SE,135,0.0,0.0,80,0.00,CLR,,0.00,WeatherDisplay:10.37,2013-01-03 09:28:00,
2013-01-03 04:33:00,21.0,15.8,30.14,SSE,158,0.0,0.0,80,0.00,CLR,,0.00,WeatherDisplay:10.37,2013-01-03 09:33:00,
2013-01-03 04:38:00,21.0,15.8,30.14,SSE,158,1.8,1.8,80,0.00,CLR,,0.00,WeatherDisplay:10.37,2013-01-03 09:38:00,
2013-01-03 04:43:00,21.0,16.1,30.12,SE,135,1.1,1.1,81,0.00,CLR,,0.00,WeatherDisplay:10.37,2013-01-03 09:43:00,
2013-01-03 04:48:00,21.0,16.1,30.12,SSE,158,1.1,0.0,81,0.00,CLR,,0.00,WeatherDisplay:10.37,2013-01-03 09:48:00,
2013-01-03 04:53:00,21.0,16.1,30.12,SE,135,2.3,2.3,81,0.00,CLR,,0.00,WeatherDisplay:10.37,2013-01-03 09:53:00,
2013-01-03 04:58:00,21.2,16.3,30.12,SE,135,0.0,0.0,81,0.00,CLR,,0.00,WeatherDisplay:10.37,2013-01-03 09:58:00,
2013-01-03 05:03:00,21.2,16.3,30.12,ESE,112,0.0,0.0,81,0.00,CLR,,0.00,WeatherDisplay:10.37,2013-01-03 10:03:00,
2013-01-03 05:08:00,21.0,16.1,30.12,ESE,112,0.0,0.0,81,0.00,CLR,,0.00,WeatherDisplay:10.37,2013-01-03 10:08:00,
2013-01-03 05:13:00,21.0,16.1,30.12,ESE,112,0.0,0.0,81,0.00,CLR,,0.00,WeatherDisplay:10.37,2013-01-03 10:13:00,
2013-01-03 05:18:00,21.2,16.3,30.12,South,180,0.0,0.0,81,0.00,CLR,,0.00,WeatherDisplay:10.37,2013-01-03 10:18:00,
2013-01-03 05:23:00,21.2,16.3,30.11,South,180,0.0,0.0,81,0.00,CLR,,0.00,WeatherDisplay:10.37,2013-01-03 10:23:00,
2013-01-03 05:28:00,21.2,16.3,30.11,SSE,158,0.0,0.0,81,0.00,CLR,,0.00,WeatherDisplay:10.37,2013-01-03 10:28:00,
2013-01-03 05:33:00,21.2,16.3,30.11,SW,225,0.0,0.0,81,0.00,CLR,,0.00,WeatherDisplay:10.37,2013-01-03 10:33:00,
2013-01-03 05:38:00,21.2,16.3,30.11,South,180,0.0,0.0,81,0.00,CLR,,0.00,WeatherDisplay:10.37,2013-01-03 10:38:00,
2013-01-03 05:43:00,21.2,16.3,30.12,ESE,112,0.0,0.0,81,0.00,CLR,,0.00,WeatherDisplay:10.37,2013-01-03 10:43:00,
2013-01-03 05:48:00,21.4,16.5,30.12,SW,225,0.0,0.0,81,0.00,CLR,,0.00,WeatherDisplay:10.37,2013-01-03 10:48:00,
2013-01-03 05:53:00,21.4,16.5,30.12,SSW,202,0.0,0.0,81,0.00,CLR,,0.00,WeatherDisplay:10.37,2013-01-03 10:53:00,
2013-01-03 05:58:00,21.4,16.5,30.12,South,180,0.0,0.0,81,0.00,CLR,,0.00,WeatherDisplay:10.37,2013-01-03 10:58:00,
2013-01-03 06:03:00,21.4,16.5,30.12,South,180,0.0,0.0,81,0.00,CLR,,0.00,WeatherDisplay:10.37,2013-01-03 11:03:00,
2013-01-03 06:08:00,21.4,16.5,30.12,ESE,112,0.0,0.0,81,0.00,CLR,,0.00,WeatherDisplay:10.37,2013-01-03 11:08:00,
2013-01-03 06:13:00,21.4,16.5,30.12,South,180,0.0,0.0,81,0.00,CLR,,0.00,WeatherDisplay:10.37,2013-01-03 11:13:00,
2013-01-03 06:18:00,21.4,16.5,30.12,East,90,0.0,0.0,81,0.00,CLR,,0.00,WeatherDisplay:10.37,2013-01-03 11:18:00,
2013-01-03 06:23:00,21.2,16.3,30.11,SE,135,0.0,0.0,81,0.00,CLR,,0.00,WeatherDisplay:10.37,2013-01-03 11:23:00,
2013-01-03 06:28:00,21.2,16.3,30.11,SE,135,0.0,0.0,81,0.00,CLR,,0.00,WeatherDisplay:10.37,2013-01-03 11:28:00,
2013-01-03 06:33:00,21.4,16.5,30.11,ESE,112,0.0,0.0,81,0.00,CLR,,0.00,WeatherDisplay:10.37,2013-01-03 11:33:00,
2013-01-03 06:38:00,21.4,16.7,30.11,SE,135,0.0,0.0,82,0.00,CLR,,0.00,WeatherDisplay:10.37,2013-01-03 11:38:00,
2013-01-03 06:43:00,21.4,16.7,30.11,SE,135,0.0,0.0,82,0.00,CLR,,0.00,WeatherDisplay:10.37,2013-01-03 11:43:00,
2013-01-03 06:48:00,21.4,16.7,30.11,SSE,158,0.0,0.0,82,0.00,CLR,,0.00,WeatherDisplay:10.37,2013-01-03 11:48:00,
2013-01-03 06:53:00,21.4,16.7,30.11,South,180,0.0,0.0,82,0.00,CLR,,0.00,WeatherDisplay:10.37,2013-01-03 11:53:00,
2013-01-03 06:58:00,21.4,16.7,30.11,South,180,0.0,0.0,82,0.00,CLR,,0.00,WeatherDisplay:10.37,2013-01-03 11:58:00,
2013-01-03 07:03:00,21.4,16.7,30.11,SE,135,0.0,0.0,82,0.00,CLR,,0.00,WeatherDisplay:10.37,2013-01-03 12:03:00,
2013-01-03 07:08:00,21.4,16.7,30.11,SE,135,0.0,0.0,82,0.00,CLR,,0.00,WeatherDisplay:10.37,2013-01-03 12:08:00,
2013-01-03 07:13:00,21.6,16.9,30.11,SE,135,0.0,0.0,82,0.00,CLR,,0.00,WeatherDisplay:10.37,2013-01-03 12:13:00,
2013-01-03 07:18:00,21.6,16.9,30.11,South,180,0.0,0.0,82,0.00,CLR,,0.00,WeatherDisplay:10.37,2013-01-03 12:18:00,
2013-01-03 07:23:00,21.6,16.9,30.11,ESE,112,0.0,0.0,82,0.00,CLR,,0.00,WeatherDisplay:10.37,2013-01-03 12:23:00,
2013-01-03 07:28:00,21.6,16.9,30.11,SSE,158,0.0,0.0,82,0.00,CLR,,0.00,WeatherDisplay:10.37,2013-01-03 12:28:00,
2013-01-03 07:33:00,21.7,17.1,30.11,South,180,0.0,0.0,82,0.00,CLR,,0.00,WeatherDisplay:10.37,2013-01-03 12:33:00,
2013-01-03 07:38:00,21.7,17.1,30.11,SSW,202,0.0,0.0,82,0.00,CLR,,0.00,WeatherDisplay:10.37,2013-01-03 12:38:00,
2013-01-03 07:43:00,21.7,17.1,30.10,SE,135,0.0,0.0,82,0.00,CLR,,0.00,WeatherDisplay:10.37,2013-01-03 12:43:00,
2013-01-03 07:48:00,21.7,17.1,30.10,SSW,202,0.0,0.0,82,0.00,CLR,,0.00,WeatherDisplay:10.37,2013-01-03 12:48:00,
2013-01-03 07:53:00,21.9,17.3,30.10,WSW,248,0.0,0.0,82,0.00,CLR,,0.00,WeatherDisplay:10.37,2013-01-03 12:53:00,
2013-01-03 07:58:00,21.9,17.3,30.10,South,180,0.0,0.3,82,0.00,CLR,,0.00,WeatherDisplay:10.37,2013-01-03 12:58:00,
2013-01-03 08:03:00,21.9,17.3,30.10,South,180,0.0,0.0,82,0.00,CLR,,0.00,WeatherDisplay:10.37,2013-01-03 13:03:00,
2013-01-03 08:08:00,21.9,17.3,30.10,South,180,0.0,0.0,82,0.00,CLR,,0.00,WeatherDisplay:10.37,2013-01-03 13:08:00,
2013-01-03 08:13:00,22.1,17.4,30.10,SSW,202,0.0,0.0,82,0.00,CLR,,0.00,WeatherDisplay:10.37,2013-01-03 13:13:00,
2013-01-03 08:18:00,22.3,17.6,30.10,South,180,0.0,0.0,82,0.00,CLR,,0.00,WeatherDisplay:10.37,2013-01-03 13:18:00,
2013-01-03 08:23:00,22.1,17.4,30.10,SSE,158,0.0,0.0,82,0.00,CLR,,0.00,WeatherDisplay:10.37,2013-01-03 13:23:00,
2013-01-03 08:28:00,22.3,17.6,30.10,SW,225,0.0,0.0,82,0.00,CLR,,0.00,WeatherDisplay:10.37,2013-01-03 13:28:00,
2013-01-03 08:33:00,22.3,17.6,30.10,South,180,1.1,1.1,82,0.00,CLR,,0.00,WeatherDisplay:10.37,2013-01-03 13:33:00,
2013-01-03 08:38:00,22.5,17.8,30.10,SSE,158,1.1,1.1,82,0.00,CLR,,0.00,WeatherDisplay:10.37,2013-01-03 13:38:00,
2013-01-03 08:43:00,22.6,18.0,30.10,SE,135,2.3,2.3,82,0.00,CLR,,0.00,WeatherDisplay:10.37,2013-01-03 13:43:00,
2013-01-03 08:48:00,22.8,18.1,30.10,South,180,2.3,2.3,82,0.00,CLR,,0.00,WeatherDisplay:10.37,2013-01-03 13:48:00,
2013-01-03 08:53:00,23.0,18.3,30.10,South,180,1.1,1.1,82,0.00,CLR,,0.00,WeatherDisplay:10.37,2013-01-03 13:53:00,
2013-01-03 08:58:00,23.0,18.3,30.09,SE,135,2.3,2.3,82,0.00,CLR,,0.00,WeatherDisplay:10.37,2013-01-03 13:58:00,
2013-01-03 09:03:00,23.2,18.5,30.09,SSE,158,3.5,3.5,82,0.00,CLR,,0.00,WeatherDisplay:10.37,2013-01-03 14:03:00,
2013-01-03 09:09:00,23.2,18.5,30.09,South,180,2.3,2.3,82,0.00,CLR,,0.00,WeatherDisplay:10.37,2013-01-03 14:09:00,
2013-01-03 09:14:00,23.4,18.4,30.09,South,180,2.3,2.3,81,0.00,CLR,,0.00,WeatherDisplay:10.37,2013-01-03 14:14:00,
2013-01-03 09:19:00,23.4,18.4,30.08,SSW,202,2.3,2.3,81,0.00,CLR,,0.00,WeatherDisplay:10.37,2013-01-03 14:19:00,
2013-01-03 09:24:00,23.2,18.2,30.08,SSE,158,2.6,2.6,81,0.00,CLR,,0.00,WeatherDisplay:10.37,2013-01-03 14:24:00,
2013-01-03 09:29:00,23.2,18.2,30.08,SW,225,3.5,3.5,81,0.00,CLR,,0.00,WeatherDisplay:10.37,2013-01-03 14:29:00,
2013-01-03 09:34:00,23.2,18.2,30.08,SE,135,3.5,3.5,81,0.00,CLR,,0.00,WeatherDisplay:10.37,2013-01-03 14:34:00,
2013-01-03 09:39:00,23.2,17.9,30.09,SSE,158,2.3,2.3,80,0.00,CLR,,0.00,WeatherDisplay:10.37,2013-01-03 14:39:00,
2013-01-03 09:44:00,23.0,17.7,30.09,SE,135,2.3,2.3,80,0.00,CLR,,0.00,WeatherDisplay:10.37,2013-01-03 14:44:00,
2013-01-03 09:49:00,23.2,17.9,30.09,SW,225,2.3,2.3,80,0.00,CLR,,0.00,WeatherDisplay:10.37,2013-01-03 14:49:00,
2013-01-03 09:54:00,23.2,17.9,30.09,South,180,3.5,3.5,80,0.00,CLR,,0.00,WeatherDisplay:10.37,2013-01-03 14:54:00,
2013-01-03 09:59:00,23.4,18.1,30.09,South,180,4.6,4.6,80,0.00,CLR,,0.00,WeatherDisplay:10.37,2013-01-03 14:59:00,
2013-01-03 10:04:00,23.4,18.1,30.09,South,180,4.6,4.6,80,0.00,CLR,,0.00,WeatherDisplay:10.37,2013-01-03 15:04:00,
2013-01-03 10:09:00,23.4,17.8,30.09,SW,225,4.6,4.6,79,0.00,CLR,,0.00,WeatherDisplay:10.37,2013-01-03 15:09:00,
2013-01-03 10:14:00,23.4,17.8,30.09,SSE,158,4.6,4.6,79,0.00,CLR,,0.00,WeatherDisplay:10.37,2013-01-03 15:14:00,
2013-01-03 10:19:00,23.5,18.0,30.09,South,180,5.8,5.8,79,0.00,CLR,,0.00,WeatherDisplay:10.37,2013-01-03 15:19:00,
2013-01-03 10:24:00,23.9,18.3,30.09,SSE,158,3.5,3.5,79,0.00,CLR,,0.00,WeatherDisplay:10.37,2013-01-03 15:24:00,
2013-01-03 10:29:00,23.9,18.3,30.09,South,180,4.6,4.6,79,0.00,CLR,,0.00,WeatherDisplay:10.37,2013-01-03 15:29:00,
2013-01-03 10:34:00,24.1,18.2,30.09,South,180,5.8,5.8,78,0.00,CLR,,0.00,WeatherDisplay:10.37,2013-01-03 15:34:00,
2013-01-03 10:39:00,24.3,18.4,30.08,South,180,5.8,5.8,78,0.00,CLR,,0.00,WeatherDisplay:10.37,2013-01-03 15:39:00,
2013-01-03 10:44:00,24.4,18.6,30.08,SSW,202,3.5,3.5,78,0.00,CLR,,0.00,WeatherDisplay:10.37,2013-01-03 15:44:00,
2013-01-03 10:49:00,24.4,18.6,30.08,South,180,4.6,4.6,78,0.00,CLR,,0.00,WeatherDisplay:10.37,2013-01-03 15:49:00,
2013-01-03 10:54:00,24.6,18.7,30.08,South,180,2.3,3.1,78,0.00,CLR,,0.00,WeatherDisplay:10.37,2013-01-03 15:54:00,
2013-01-03 10:59:00,24.8,18.9,30.07,ESE,112,4.6,4.6,78,0.00,CLR,,0.00,WeatherDisplay:10.37,2013-01-03 15:59:00,
2013-01-03 11:04:00,25.2,19.3,30.07,South,180,6.9,6.9,78,0.00,CLR,,0.00,WeatherDisplay:10.37,2013-01-03 16:04:00,
2013-01-03 11:09:00,25.7,19.5,30.07,SSE,158,4.6,4.6,77,0.00,CLR,,0.00,WeatherDisplay:10.37,2013-01-03 16:09:00,
2013-01-03 11:14:00,26.1,19.8,30.07,SSE,158,4.6,4.6,77,0.00,CLR,,0.00,WeatherDisplay:10.37,2013-01-03 16:14:00,
2013-01-03 11:19:00,26.1,19.8,30.06,South,180,4.6,4.6,77,0.00,CLR,,0.00,WeatherDisplay:10.37,2013-01-03 16:19:00,
2013-01-03 11:24:00,26.2,20.0,30.06,WSW,248,4.6,4.6,77,0.00,CLR,,0.00,WeatherDisplay:10.37,2013-01-03 16:24:00,
2013-01-03 11:29:00,26.6,20.4,30.06,South,180,3.5,3.5,77,0.00,CLR,,0.00,WeatherDisplay:10.37,2013-01-03 16:29:00,
2013-01-03 11:34:00,26.8,20.2,30.06,South,180,5.8,5.8,76,0.00,CLR,,0.00,WeatherDisplay:10.37,2013-01-03 16:34:00,
2013-01-03 11:39:00,27.1,20.6,30.04,ESE,112,4.6,4.6,76,0.00,CLR,,0.00,WeatherDisplay:10.37,2013-01-03 16:39:00,
2013-01-03 11:44:00,27.3,20.8,30.04,SSE,158,5.8,5.8,76,0.00,CLR,,0.00,WeatherDisplay:10.37,2013-01-03 16:44:00,
2013-01-03 11:49:00,27.5,20.6,30.04,South,180,4.6,4.6,75,0.00,CLR,,0.00,WeatherDisplay:10.37,2013-01-03 16:49:00,
2013-01-03 11:54:00,27.7,20.8,30.04,WSW,248,6.9,6.9,75,0.00,CLR,,0.00,WeatherDisplay:10.37,2013-01-03 16:54:00,
2013-01-03 11:59:00,27.7,20.8,30.03,WSW,248,3.5,4.1,75,0.00,CLR,,0.00,WeatherDisplay:10.37,2013-01-03 16:59:00,
2013-01-03 12:04:00,27.7,20.8,30.03,SSE,158,4.6,4.6,75,0.00,CLR,,0.00,WeatherDisplay:10.37,2013-01-03 17:04:00,
2013-01-03 12:09:00,27.7,20.8,30.03,South,180,6.9,6.9,75,0.00,CLR,,0.00,WeatherDisplay:10.37,2013-01-03 17:09:00,
2013-01-03 12:14:00,28.0,21.1,30.03,South,180,4.6,4.6,75,0.00,CLR,,0.00,WeatherDisplay:10.37,2013-01-03 17:14:00,
2013-01-03 12:19:00,28.4,21.2,30.02,SW,225,6.9,6.9,74,0.00,CLR,,0.00,WeatherDisplay:10.37,2013-01-03 17:19:00,
2013-01-03 12:24:00,28.6,21.3,30.02,SW,225,6.9,6.9,74,0.00,CLR,,0.00,WeatherDisplay:10.37,2013-01-03 17:24:00,
2013-01-03 12:29:00,28.8,21.5,30.02,SW,225,4.7,4.7,74,0.00,CLR,,0.00,WeatherDisplay:10.37,2013-01-03 17:29:00,
2013-01-03 12:34:00,28.9,21.7,30.02,SSW,202,2.3,3.0,74,0.00,CLR,,0.00,WeatherDisplay:10.37,2013-01-03 17:34:00,
2013-01-03 12:39:00,28.9,21.7,30.01,West,270,9.2,9.2,74,0.00,CLR,,0.00,WeatherDisplay:10.37,2013-01-03 17:39:00,
2013-01-03 12:44:00,28.9,21.7,30.01,South,180,3.5,3.7,74,0.00,CLR,,0.00,WeatherDisplay:10.37,2013-01-03 17:44:00,
2013-01-03 12:49:00,28.8,21.5,30.01,South,180,4.6,4.6,74,0.00,CLR,,0.00,WeatherDisplay:10.37,2013-01-03 17:49:00,
2013-01-03 12:54:00,28.4,21.2,30.01,South,180,4.6,4.6,74,0.00,CLR,,0.00,WeatherDisplay:10.37,2013-01-03 17:54:00,
2013-01-03 12:59:00,28.6,21.3,30.00,South,180,6.9,6.9,74,0.00,CLR,,0.00,WeatherDisplay:10.37,2013-01-03 17:59:00,
2013-01-03 13:04:00,28.4,21.2,30.00,NW,315,4.6,4.6,74,0.00,CLR,,0.00,WeatherDisplay:10.37,2013-01-03 18:04:00,
2013-01-03 13:09:00,28.9,21.7,30.00,South,180,4.6,4.6,74,0.00,CLR,,0.00,WeatherDisplay:10.37,2013-01-03 18:09:00,
2013-01-03 13:14:00,29.1,21.9,30.00,NNE,22,5.8,5.8,74,0.00,CLR,,0.00,WeatherDisplay:10.37,2013-01-03 18:14:00,
2013-01-03 13:19:00,29.1,21.9,29.99,SSW,202,4.6,4.6,74,0.00,CLR,,0.00,WeatherDisplay:10.37,2013-01-03 18:19:00,
2013-01-03 13:24:00,29.1,21.9,29.99,South,180,4.1,4.1,74,0.00,CLR,,0.00,WeatherDisplay:10.37,2013-01-03 18:24:00,
2013-01-03 13:29:00,29.1,21.9,29.99,South,180,4.6,4.6,74,0.00,CLR,,0.00,WeatherDisplay:10.37,2013-01-03 18:29:00,
2013-01-03 13:34:00,29.1,21.9,29.99,NE,45,4.6,4.6,74,0.00,CLR,,0.00,WeatherDisplay:10.37,2013-01-03 18:34:00,
2013-01-03 13:39:00,28.8,21.5,29.99,South,180,6.1,6.1,74,0.00,CLR,,0.00,WeatherDisplay:10.37,2013-01-03 18:39:00,
2013-01-03 13:45:00,28.8,21.8,29.99,SW,225,6.9,6.9,75,0.00,CLR,,0.00,WeatherDisplay:10.37,2013-01-03 18:45:00,
2013-01-03 13:50:00,28.8,21.5,29.99,WSW,248,3.5,3.5,74,0.00,CLR,,0.00,WeatherDisplay:10.37,2013-01-03 18:50:00,
2013-01-03 13:55:00,28.9,21.7,29.99,NW,315,4.6,4.6,74,0.00,CLR,,0.00,WeatherDisplay:10.37,2013-01-03 18:55:00,
2013-01-03 14:00:00,28.8,21.5,29.97,SE,135,3.5,3.5,74,0.00,CLR,,0.00,WeatherDisplay:10.37,2013-01-03 19:00:00,
2013-01-03 14:05:00,28.8,21.5,29.97,South,180,4.6,4.6,74,0.00,CLR,,0.00,WeatherDisplay:10.37,2013-01-03 19:05:00,
2013-01-03 14:10:00,28.9,21.7,29.97,South,180,5.8,5.8,74,0.00,CLR,,0.00,WeatherDisplay:10.37,2013-01-03 19:10:00,
2013-01-03 14:15:00,28.8,21.5,29.97,West,270,5.8,5.8,74,0.00,CLR,,0.00,WeatherDisplay:10.37,2013-01-03 19:15:00,
2013-01-03 14:55:00,29.5,22.8,29.96,WSW,248,9.2,9.2,76,0.00,CLR,,0.00,WeatherDisplay:10.37,2013-01-03 19:55:00,
2013-01-03 15:00:00,29.5,22.8,29.98,South,180,13.8,13.8,76,0.00,CLR,,0.00,WeatherDisplay:10.37,2013-01-03 20:00:00,
2013-01-03 15:05:00,29.7,23.6,29.98,West,270,10.4,10.4,78,0.00,CLR,,0.00,WeatherDisplay:10.37,2013-01-03 20:05:00,
2013-01-03 15:10:00,29.5,24.1,29.98,West,270,15.4,15.4,80,0.00,CLR,,0.00,WeatherDisplay:10.37,2013-01-03 20:10:00,
2013-01-03 15:15:00,29.5,24.1,29.98,East,90,12.7,12.7,80,0.00,CLR,,0.00,WeatherDisplay:10.37,2013-01-03 20:15:00,
2013-01-03 15:20:00,29.8,24.7,29.97,SE,135,3.5,4.8,81,0.00,CLR,,0.00,WeatherDisplay:10.37,2013-01-03 20:20:00,
2013-01-03 15:25:00,29.7,24.5,29.97,SW,225,8.1,8.1,81,0.00,CLR,,0.00,WeatherDisplay:10.37,2013-01-03 20:25:00,
2013-01-03 15:30:00,29.3,24.2,29.97,SSW,202,4.8,5.5,81,0.00,CLR,,0.00,WeatherDisplay:10.37,2013-01-03 20:30:00,
2013-01-03 15:35:00,29.3,24.2,29.97,SW,225,8.1,8.1,81,0.00,CLR,,0.00,WeatherDisplay:10.37,2013-01-03 20:35:00,
2013-01-03 15:40:00,29.1,23.7,29.98,WSW,248,9.2,9.2,80,0.00,CLR,,0.00,WeatherDisplay:10.37,2013-01-03 20:40:00,
2013-01-03 15:45:00,28.9,23.5,29.98,South,180,8.1,8.1,80,0.00,CLR,,0.00,WeatherDisplay:10.37,2013-01-03 20:45:00,
2013-01-03 15:50:00,28.8,23.4,29.98,WSW,248,8.3,8.3,80,0.00,CLR,,0.00,WeatherDisplay:10.37,2013-01-03 20:50:00,
2013-01-03 15:55:00,28.6,23.2,29.98,West,270,8.1,8.1,80,0.00,CLR,,0.00,WeatherDisplay:10.37,2013-01-03 20:55:00,
2013-01-03 16:00:00,28.4,23.0,29.98,SSE,158,6.9,6.9,80,0.00,CLR,,0.00,WeatherDisplay:10.37,2013-01-03 21:00:00,
2013-01-03 16:05:00,28.4,23.3,29.98,West,270,4.6,4.6,81,0.00,CLR,,0.00,WeatherDisplay:10.37,2013-01-03 21:05:00,
2013-01-03 16:10:00,28.2,23.1,29.98,WSW,248,4.3,4.3,81,0.00,CLR,,0.00,WeatherDisplay:10.37,2013-01-03 21:10:00,
2013-01-03 16:16:00,28.0,23.0,29.98,South,180,8.1,8.1,81,0.00,CLR,,0.00,WeatherDisplay:10.37,2013-01-03 21:16:00,
2013-01-03 16:21:00,27.7,23.2,29.97,SW,225,4.6,4.7,83,0.00,CLR,,0.00,WeatherDisplay:10.37,2013-01-03 21:21:00,
2013-01-03 16:26:00,27.7,23.2,29.97,WSW,248,5.8,5.8,83,0.00,CLR,,0.00,WeatherDisplay:10.37,2013-01-03 21:26:00,
2013-01-03 16:31:00,27.7,23.5,29.97,SW,225,4.6,4.6,84,0.00,CLR,,0.00,WeatherDisplay:10.37,2013-01-03 21:31:00,
2013-01-03 16:36:00,27.7,23.5,29.97,WSW,248,4.6,4.6,84,0.00,CLR,,0.00,WeatherDisplay:10.37,2013-01-03 21:36:00,
2013-01-03 16:41:00,27.7,23.5,29.97,South,180,0.0,3.8,84,0.00,CLR,,0.00,WeatherDisplay:10.37,2013-01-03 21:41:00,
2013-01-03 16:46:00,27.7,23.5,29.97,WSW,248,5.8,5.8,84,0.00,CLR,,0.00,WeatherDisplay:10.37,2013-01-03 21:46:00,
2013-01-03 16:51:00,27.9,23.4,29.97,West,270,6.9,6.9,83,0.00,CLR,,0.00,WeatherDisplay:10.37,2013-01-03 21:51:00,
2013-01-03 16:56:00,28.0,23.5,29.97,SSW,202,4.6,4.6,83,0.00,CLR,,0.00,WeatherDisplay:10.37,2013-01-03 21:56:00,
2013-01-03 17:01:00,28.0,23.5,29.97,WSW,248,8.1,8.1,83,0.00,CLR,,0.00,WeatherDisplay:10.37,2013-01-03 22:01:00,
2013-01-03 17:06:00,28.2,23.7,29.97,West,270,5.8,5.8,83,0.00,CLR,,0.00,WeatherDisplay:10.37,2013-01-03 22:06:00,
2013-01-03 17:11:00,28.6,24.1,29.97,South,180,3.5,3.8,83,0.00,CLR,,0.00,WeatherDisplay:10.37,2013-01-03 22:11:00,
2013-01-03 17:16:00,29.1,24.6,29.97,SW,225,3.5,3.5,83,0.00,CLR,,0.00,WeatherDisplay:10.37,2013-01-03 22:16:00,
2013-01-03 17:21:00,29.3,24.8,29.98,SSW,202,6.9,6.9,83,0.00,CLR,,0.00,WeatherDisplay:10.37,2013-01-03 22:21:00,
2013-01-03 17:26:00,29.3,24.8,29.98,WSW,248,2.3,3.7,83,0.00,CLR,,0.00,WeatherDisplay:10.37,2013-01-03 22:26:00,
2013-01-03 17:31:00,29.3,24.8,29.98,SW,225,2.3,3.6,83,0.00,CLR,,0.00,WeatherDisplay:10.37,2013-01-03 22:31:00,
2013-01-03 17:36:00,29.5,25.0,29.98,SW,225,5.8,5.8,83,0.00,CLR,,0.00,WeatherDisplay:10.37,2013-01-03 22:36:00,
2013-01-03 17:41:00,29.7,25.4,29.97,SW,225,2.3,3.3,84,0.00,CLR,,0.00,WeatherDisplay:10.37,2013-01-03 22:41:00,
2013-01-03 17:46:00,29.8,25.6,29.97,South,180,9.2,9.2,84,0.00,CLR,,0.00,WeatherDisplay:10.37,2013-01-03 22:46:00,
2013-01-03 17:51:00,30.2,25.9,29.97,South,180,6.9,6.9,84,0.00,CLR,,0.00,WeatherDisplay:10.37,2013-01-03 22:51:00,
2013-01-03 17:56:00,30.6,26.3,29.97,West,270,9.2,9.2,84,0.00,CLR,,0.00,WeatherDisplay:10.37,2013-01-03 22:56:00,
2013-01-03 18:01:00,30.9,26.7,29.98,West,270,16.2,16.2,84,0.00,CLR,,0.00,WeatherDisplay:10.37,2013-01-03 23:01:00,
2013-01-03 18:06:00,31.1,26.5,29.98,South,180,6.9,6.9,83,0.00,CLR,,0.00,WeatherDisplay:10.37,2013-01-03 23:06:00,
2013-01-03 18:11:00,31.3,26.7,29.98,West,270,12.7,12.7,83,0.00,CLR,,0.00,WeatherDisplay:10.37,2013-01-03 23:11:00,
2013-01-03 18:16:00,31.1,26.5,29.98,West,270,9.2,9.2,83,0.00,CLR,,0.00,WeatherDisplay:10.37,2013-01-03 23:16:00,
2013-01-03 18:21:00,30.9,26.1,29.99,West,270,9.5,9.5,82,0.00,CLR,,0.00,WeatherDisplay:10.37,2013-01-03 23:21:00,
2013-01-03 18:26:00,30.9,26.1,29.99,West,270,12.7,12.7,82,0.00,CLR,,0.00,WeatherDisplay:10.37,2013-01-03 23:26:00,
2013-01-03 18:31:00,30.9,26.1,29.99,WNW,292,12.2,12.2,82,0.00,CLR,,0.00,WeatherDisplay:10.37,2013-01-03 23:31:00,
2013-01-03 18:36:00,30.9,25.8,29.99,NW,315,18.4,18.4,81,0.00,CLR,,0.00,WeatherDisplay:10.37,2013-01-03 23:36:00,
2013-01-03 18:41:00,30.9,25.8,30.01,West,270,4.6,6.7,81,0.00,CLR,,0.00,WeatherDisplay:10.37,2013-01-03 23:41:00,
2013-01-03 18:46:00,30.7,25.6,30.01,West,270,8.1,8.1,81,0.00,CLR,,0.00,WeatherDisplay:10.37,2013-01-03 23:46:00,
2013-01-03 18:51:00,30.7,25.6,30.01,West,270,9.2,9.2,81,0.00,CLR,,0.00,WeatherDisplay:10.37,2013-01-03 23:51:00,
2013-01-03 18:56:00,30.6,25.4,30.01,West,270,11.5,11.5,81,0.00,CLR,,0.00,WeatherDisplay:10.37,2013-01-03 23:56:00,
2013-01-03 19:01:00,30.6,25.4,30.01,WSW,248,13.8,13.8,81,0.00,CLR,,0.00,WeatherDisplay:10.37,2013-01-04 00:01:00,
2013-01-03 19:06:00,30.6,25.4,30.01,WSW,248,10.4,10.4,81,0.00,CLR,,0.00,WeatherDisplay:10.37,2013-01-04 00:06:00,
2013-01-03 19:11:00,30.4,25.2,30.01,NNE,22,6.9,7.2,81,0.00,CLR,,0.00,WeatherDisplay:10.37,2013-01-04 00:11:00,
2013-01-03 19:16:00,30.2,24.8,30.01,West,270,15.0,15.0,80,0.00,CLR,,0.00,WeatherDisplay:10.37,2013-01-04 00:16:00,
2013-01-03 19:21:00,30.2,24.8,30.02,West,270,11.8,11.8,80,0.00,CLR,,0.00,WeatherDisplay:10.37,2013-01-04 00:21:00,
2013-01-03 19:26:00,30.0,24.3,30.02,West,270,16.1,16.1,79,0.00,CLR,,0.00,WeatherDisplay:10.37,2013-01-04 00:26:00,
2013-01-03 19:31:00,29.8,24.1,30.02,WSW,248,13.7,13.7,79,0.00,CLR,,0.00,WeatherDisplay:10.37,2013-01-04 00:31:00,
2013-01-03 19:36:00,29.8,24.1,30.02,WNW,292,11.5,11.5,79,0.00,CLR,,0.00,WeatherDisplay:10.37,2013-01-04 00:36:00,
2013-01-03 19:41:00,29.7,23.9,30.03,West,270,18.4,18.4,79,0.00,CLR,,0.00,WeatherDisplay:10.37,2013-01-04 00:41:00,
2013-01-03 19:46:00,29.5,23.8,30.03,West,270,10.0,10.0,79,0.00,CLR,,0.00,WeatherDisplay:10.37,2013-01-04 00:46:00,
2013-01-03 19:51:00,29.5,24.1,30.03,West,270,11.5,11.5,80,0.00,CLR,,0.00,WeatherDisplay:10.37,2013-01-04 00:51:00,
2013-01-03 19:56:00,29.5,24.1,30.03,WSW,248,15.6,15.6,80,0.00,CLR,,0.00,WeatherDisplay:10.37,2013-01-04 00:56:00,
2013-01-03 20:01:00,29.3,23.9,30.03,WNW,292,10.4,10.4,80,0.00,CLR,,0.00,WeatherDisplay:10.37,2013-01-04 01:01:00,
2013-01-03 20:06:00,29.1,23.7,30.03,West,270,10.9,10.9,80,0.00,CLR,,0.00,WeatherDisplay:10.37,2013-01-04 01:06:00,
2013-01-03 20:12:00,29.1,24.0,30.03,SSW,202,6.9,6.9,81,0.00,CLR,,0.00,WeatherDisplay:10.37,2013-01-04 01:12:00,
2013-01-03 20:17:00,28.9,24.4,30.03,WSW,248,11.5,11.5,83,0.00,CLR,,0.00,WeatherDisplay:10.37,2013-01-04 01:17:00,
2013-01-03 20:22:00,29.1,24.3,30.04,SW,225,9.2,9.2,82,0.00,CLR,,0.00,WeatherDisplay:10.37,2013-01-04 01:22:00,
2013-01-03 20:27:00,28.9,24.1,30.04,NW,315,11.5,11.5,82,0.00,CLR,,0.00,WeatherDisplay:10.37,2013-01-04 01:27:00,
2013-01-03 20:32:00,29.1,24.3,30.04,SW,225,6.9,6.9,82,0.00,CLR,,0.00,WeatherDisplay:10.37,2013-01-04 01:32:00,
2013-01-03 20:37:00,28.9,23.8,30.04,WNW,292,11.5,11.5,81,0.00,CLR,,0.00,WeatherDisplay:10.37,2013-01-04 01:37:00,
2013-01-03 20:42:00,28.9,23.8,30.03,West,270,9.2,9.2,81,0.00,CLR,,0.00,WeatherDisplay:10.37,2013-01-04 01:42:00,
2013-01-03 20:47:00,28.8,23.7,30.03,WSW,248,16.1,16.1,81,0.00,CLR,,0.00,WeatherDisplay:10.37,2013-01-04 01:47:00,
2013-01-03 20:52:00,28.8,23.7,30.03,SW,225,17.3,17.3,81,0.00,CLR,,0.00,WeatherDisplay:10.37,2013-01-04 01:52:00,
2013-01-03 20:57:00,28.8,23.7,30.03,SW,225,10.4,10.4,81,0.00,CLR,,0.00,WeatherDisplay:10.37,2013-01-04 01:57:00,
2013-01-03 21:02:00,28.8,23.4,30.03,ENE,68,9.2,9.2,80,0.00,CLR,,0.00,WeatherDisplay:10.37,2013-01-04 02:02:00,
2013-01-03 21:07:00,28.8,23.4,30.03,SSW,202,11.5,11.5,80,0.00,CLR,,0.00,WeatherDisplay:10.37,2013-01-04 02:07:00,
2013-01-03 21:12:00,28.8,23.4,30.03,WSW,248,16.1,16.1,80,0.00,CLR,,0.00,WeatherDisplay:10.37,2013-01-04 02:12:00,
2013-01-03 21:17:00,28.8,23.4,30.03,West,270,6.9,8.2,80,0.00,CLR,,0.00,WeatherDisplay:10.37,2013-01-04 02:17:00,
2013-01-03 21:22:00,28.9,23.5,30.03,West,270,8.1,8.1,80,0.00,CLR,,0.00,WeatherDisplay:10.37,2013-01-04 02:22:00,
2013-01-03 21:27:00,28.8,23.4,30.03,WSW,248,6.9,6.9,80,0.00,CLR,,0.00,WeatherDisplay:10.37,2013-01-04 02:27:00,
2013-01-03 21:32:00,28.8,23.4,30.03,WSW,248,10.4,10.4,80,0.00,CLR,,0.00,WeatherDisplay:10.37,2013-01-04 02:32:00,
2013-01-03 21:37:00,28.8,23.4,30.03,NW,315,5.8,6.9,80,0.00,CLR,,0.00,WeatherDisplay:10.37,2013-01-04 02:37:00,
2013-01-03 21:42:00,28.8,23.7,30.04,WSW,248,13.8,13.8,81,0.00,CLR,,0.00,WeatherDisplay:10.37,2013-01-04 02:42:00,
2013-01-03 21:47:00,28.8,23.7,30.04,SSW,202,13.8,13.8,81,0.00,CLR,,0.00,WeatherDisplay:10.37,2013-01-04 02:47:00,
2013-01-03 21:52:00,28.8,24.0,30.04,NNE,22,11.5,11.5,82,0.00,CLR,,0.00,WeatherDisplay:10.37,2013-01-04 02:52:00,
2013-01-03 21:57:00,28.8,23.7,30.04,West,270,6.9,6.9,81,0.00,CLR,,0.00,WeatherDisplay:10.37,2013-01-04 02:57:00,
2013-01-03 22:02:00,28.9,23.5,30.04,SW,225,14.1,14.1,80,0.00,CLR,,0.00,WeatherDisplay:10.37,2013-01-04 03:02:00,
2013-01-03 22:07:00,28.9,23.5,30.04,SW,225,11.5,11.5,80,0.00,CLR,,0.00,WeatherDisplay:10.37,2013-01-04 03:07:00,
2013-01-03 22:12:00,28.9,23.5,30.04,West,270,4.6,6.8,80,0.00,CLR,,0.00,WeatherDisplay:10.37,2013-01-04 03:12:00,
2013-01-03 22:17:00,29.1,23.7,30.04,West,270,11.5,11.5,80,0.00,CLR,,0.00,WeatherDisplay:10.37,2013-01-04 03:17:00,
2013-01-03 22:22:00,29.1,23.4,30.04,WSW,248,10.7,10.7,79,0.00,CLR,,0.00,WeatherDisplay:10.37,2013-01-04 03:22:00,
2013-01-03 22:27:00,29.1,23.4,30.04,WSW,248,9.5,9.5,79,0.00,CLR,,0.00,WeatherDisplay:10.37,2013-01-04 03:27:00,
2013-01-03 22:32:00,29.1,23.4,30.04,WSW,248,8.1,8.1,79,0.00,CLR,,0.00,WeatherDisplay:10.37,2013-01-04 03:32:00,
2013-01-03 22:37:00,29.1,23.4,30.04,NW,315,11.5,11.5,79,0.00,CLR,,0.00,WeatherDisplay:10.37,2013-01-04 03:37:00,
2013-01-03 22:42:00,29.1,23.4,30.04,WSW,248,18.4,18.4,79,0.00,CLR,,0.00,WeatherDisplay:10.37,2013-01-04 03:42:00,
2013-01-03 22:47:00,29.1,23.4,30.04,WSW,248,11.5,11.5,79,0.00,CLR,,0.00,WeatherDisplay:10.37,2013-01-04 03:47:00,
2013-01-03 22:52:00,29.1,23.4,30.04,SW,225,9.2,9.2,79,0.00,CLR,,0.00,WeatherDisplay:10.37,2013-01-04 03:52:00,
2013-01-03 22:57:00,29.1,23.4,30.04,WNW,292,16.1,16.1,79,0.00,CLR,,0.00,WeatherDisplay:10.37,2013-01-04 03:57:00,
2013-01-03 23:02:00,29.1,23.1,30.04,West,270,9.5,9.5,78,0.00,CLR,,0.00,WeatherDisplay:10.37,2013-01-04 04:02:00,
2013-01-03 23:07:00,29.3,23.3,30.04,West,270,5.8,7.2,78,0.00,CLR,,0.00,WeatherDisplay:10.37,2013-01-04 04:07:00,
2013-01-03 23:12:00,29.3,23.3,30.04,West,270,5.8,7.2,78,0.00,CLR,,0.00,WeatherDisplay:10.37,2013-01-04 04:12:00,
2013-01-03 23:17:00,29.3,23.3,30.04,WSW,248,9.2,9.2,78,0.00,CLR,,0.00,WeatherDisplay:10.37,2013-01-04 04:17:00,
2013-01-03 23:22:00,29.3,23.3,30.04,West,270,13.8,13.8,78,0.00,CLR,,0.00,WeatherDisplay:10.37,2013-01-04 04:22:00,
2013-01-03 23:27:00,29.3,23.3,30.04,WSW,248,9.2,9.2,78,0.00,CLR,,0.00,WeatherDisplay:10.37,2013-01-04 04:27:00,
2013-01-03 23:32:00,29.3,23.3,30.04,WSW,248,8.1,8.1,78,0.00,CLR,,0.00,WeatherDisplay:10.37,2013-01-04 04:32:00,
2013-01-03 23:37:00,29.3,23.0,30.04,West,270,10.4,10.4,77,0.00,CLR,,0.00,WeatherDisplay:10.37,2013-01-04 04:37:00,
2013-01-03 23:42:00,29.3,23.0,30.03,WSW,248,9.5,9.5,77,0.00,CLR,,0.00,WeatherDisplay:10.37,2013-01-04 04:42:00,
2013-01-03 23:47:00,29.5,23.2,30.03,WSW,248,12.7,12.7,77,0.00,CLR,,0.00,WeatherDisplay:10.37,2013-01-04 04:47:00,
2013-01-03 23:52:00,29.5,23.2,30.03,West,270,13.8,13.8,77,0.00,CLR,,0.00,WeatherDisplay:10.37,2013-01-04 04:52:00,
2013-01-03 23:57:00,29.5,22.8,30.03,WSW,248,11.8,11.8,76,0.00,CLR,,0.00,WeatherDisplay:10.37,2013-01-04 04:57:00,